Time;durP1;ratioP1;P1;durP2;ratioP2;P2;SDS_P1;SDS_P2;PMS_P1;PMS_P2;Temp;Humidity;BMP_temperature;BMP_pressure;BME280_temperature;BME280_humidity;BME280_pressure;Samples;Min_cycle;Max_cycle;Signal;HPM_P1;HPM_P2
2022/11/23 00:01:23;;;;;;;24.77;16.48;;;7.80;99.90;;;;;;4993869;28;20468;-55
2022/11/23 00:03:51;;;;;;;20.65;15.43;;;7.80;99.90;;;;;;4992023;28;20121;-54
2022/11/23 00:06:17;;;;;;;25.27;15.07;;;7.90;99.90;;;;;;4993536;28;20092;-53
2022/11/23 00:08:43;;;;;;;25.42;15.75;;;7.90;99.90;;;;;;5006973;28;20038;-55
2022/11/23 00:11:09;;;;;;;19.98;16.00;;;7.90;99.90;;;;;;5012845;28;20046;-57
2022/11/23 00:13:35;;;;;;;22.27;14.63;;;7.90;99.90;;;;;;5012681;28;20037;-57
2022/11/23 00:16:05;;;;;;;23.15;14.35;;;7.90;99.90;;;;;;4997870;28;20162;-54
2022/11/23 00:18:31;;;;;;;18.13;13.20;;;7.90;99.90;;;;;;4994328;28;20066;-56
2022/11/23 00:20:56;;;;;;;19.43;13.20;;;7.90;99.90;;;;;;4993140;28;20046;-56
2022/11/23 00:23:22;;;;;;;15.03;12.47;;;8.00;99.90;;;;;;4992608;28;20407;-55
2022/11/23 00:25:47;;;;;;;16.97;13.07;;;7.90;99.90;;;;;;4993151;28;20034;-55
2022/11/23 00:28:13;;;;;;;16.80;11.70;;;7.90;99.90;;;;;;4994011;28;20042;-56
2022/11/23 00:30:39;;;;;;;;;;;8.00;99.90;;;;;;5002777;28;20053;-56
2022/11/23 00:33:05;;;;;;;18.13;12.85;;;8.00;99.90;;;;;;4992686;28;19921;-57
2022/11/23 00:35:30;;;;;;;12.67;11.37;;;8.00;99.90;;;;;;4992778;28;20078;-57
2022/11/23 00:37:56;;;;;;;11.93;10.73;;;8.00;99.90;;;;;;4993277;28;20481;-53
2022/11/23 00:40:21;;;;;;;16.77;10.67;;;8.00;99.90;;;;;;4993935;28;20286;-57
2022/11/23 00:42:47;;;;;;;14.30;11.90;;;8.00;99.90;;;;;;4993132;28;20042;-55
2022/11/23 00:45:12;;;;;;;17.97;10.83;;;8.10;99.90;;;;;;4993769;28;20289;-57
2022/11/23 00:47:38;;;;;;;15.07;10.97;;;8.10;99.90;;;;;;4992638;28;20042;-56
2022/11/23 00:50:04;;;;;;;17.97;11.37;;;8.10;99.90;;;;;;4999018;28;20117;-56
2022/11/23 00:52:29;;;;;;;18.35;11.07;;;8.10;99.90;;;;;;5011818;28;20066;-58
2022/11/23 00:54:55;;;;;;;17.00;12.30;;;8.00;99.90;;;;;;5012092;28;20040;-57
2022/11/23 00:57:21;;;;;;;17.38;11.60;;;8.10;99.90;;;;;;5011910;28;20087;-55
2022/11/23 00:59:46;;;;;;;16.30;11.37;;;8.10;99.90;;;;;;5011123;28;20042;-56
2022/11/23 01:02:12;;;;;;;13.33;10.53;;;8.10;99.90;;;;;;5009557;28;20131;-57
2022/11/23 01:04:38;;;;;;;16.23;11.63;;;8.00;99.90;;;;;;5011205;28;20591;-56
2022/11/23 01:07:03;;;;;;;15.98;12.05;;;8.10;99.90;;;;;;5011432;28;20038;-56
2022/11/23 01:09:29;;;;;;;14.07;12.53;;;8.10;99.90;;;;;;5012330;28;20132;-56
2022/11/23 01:11:55;;;;;;;14.80;11.93;;;8.10;99.90;;;;;;5010102;28;20175;-57
2022/11/23 01:14:21;;;;;;;16.23;12.20;;;8.10;99.90;;;;;;5011197;28;20504;-58
2022/11/23 01:16:47;;;;;;;17.48;12.82;;;8.10;99.90;;;;;;4994805;28;20042;-53
2022/11/23 01:19:16;;;;;;;18.00;12.85;;;8.10;99.90;;;;;;4992029;28;20522;-53
2022/11/23 01:21:42;;;;;;;16.88;11.90;;;8.10;99.90;;;;;;4998470;28;20399;-52
2022/11/23 01:24:21;;;;;;;14.55;11.88;;;8.10;99.90;;;;;;5011303;28;20037;-53
2022/11/23 01:26:54;;;;;;;16.33;13.27;;;8.10;99.90;;;;;;5011828;28;20053;-56
2022/11/23 01:29:22;;;;;;;15.35;13.73;;;8.10;99.90;;;;;;5007028;28;20038;-54
2022/11/23 01:31:47;;;;;;;17.55;12.90;;;8.10;99.90;;;;;;4992884;28;20034;-55
2022/11/23 01:34:14;;;;;;;16.67;13.50;;;8.10;99.90;;;;;;4991479;28;20125;-55
2022/11/23 01:36:40;;;;;;;17.70;12.65;;;8.10;99.90;;;;;;4992561;28;20117;-52
2022/11/23 01:39:06;;;;;;;19.97;12.27;;;8.10;99.90;;;;;;4996285;28;20176;-52
2022/11/23 01:41:38;;;;;;;15.55;13.20;;;8.10;99.90;;;;;;5011672;28;20084;-57
2022/11/23 01:44:23;;;;;;;14.85;12.27;;;8.10;99.90;;;;;;5009695;28;20057;-55
2022/11/23 01:46:49;;;;;;;14.75;13.25;;;8.10;99.90;;;;;;5011819;28;20049;-55
2022/11/23 01:49:15;;;;;;;14.13;12.63;;;8.10;99.90;;;;;;5011792;28;20045;-54
2022/11/23 01:51:44;;;;;;;14.15;12.75;;;8.10;99.90;;;;;;5011582;28;20499;-54
2022/11/23 01:54:12;;;;;;;14.90;13.10;;;8.10;99.90;;;;;;4995769;28;20093;-56
2022/11/23 01:56:42;;;;;;;14.32;12.85;;;8.10;99.90;;;;;;4991399;28;20065;-57
2022/11/23 01:59:15;;;;;;;17.80;12.57;;;8.20;99.90;;;;;;4990180;28;20373;-55
2022/11/23 02:01:41;;;;;;;14.13;11.27;;;8.10;99.90;;;;;;4991617;28;20042;-54
2022/11/23 02:04:21;;;;;;;14.80;11.70;;;8.20;99.90;;;;;;5001920;28;20041;-53
2022/11/23 02:06:47;;;;;;;16.30;11.73;;;8.20;99.90;;;;;;5010807;28;20049;-54
2022/11/23 02:09:14;;;;;;;16.38;12.35;;;8.20;99.90;;;;;;4991749;28;20045;-56
2022/11/23 02:11:40;;;;;;;18.58;12.43;;;8.20;99.90;;;;;;4999204;28;20041;-57
2022/11/23 02:14:05;;;;;;;13.00;11.70;;;8.20;99.90;;;;;;5009008;28;20056;-52
2022/11/23 02:16:32;;;;;;;17.03;11.53;;;8.20;99.90;;;;;;5010710;28;20125;-52
2022/11/23 02:18:58;;;;;;;14.32;11.15;;;8.20;99.90;;;;;;5010786;28;20042;-55
2022/11/23 02:21:23;;;;;;;16.05;12.32;;;8.20;99.90;;;;;;5009537;28;20041;-54
2022/11/23 02:24:16;;;;;;;14.57;11.00;;;8.20;99.90;;;;;;5010277;28;20052;-57
2022/11/23 02:26:42;;;;;;;16.35;11.27;;;8.20;99.90;;;;;;5010860;28;20373;-54
2022/11/23 02:29:25;;;;;;;21.65;11.65;;;8.20;99.90;;;;;;5010458;28;20066;-53
2022/11/23 02:31:50;;;;;;;16.95;11.43;;;8.20;99.90;;;;;;5010800;28;20049;-55
2022/11/23 02:34:16;;;;;;;12.38;9.85;;;8.20;99.90;;;;;;5010088;28;20056;-56
2022/11/23 02:37:00;;;;;;;13.52;11.00;;;8.20;99.90;;;;;;4993193;28;20045;-56
2022/11/23 02:39:30;;;;;;;14.27;10.27;;;8.20;99.90;;;;;;4997098;28;20045;-55
2022/11/23 02:41:57;;;;;;;13.57;10.48;;;8.20;99.90;;;;;;5010521;28;20112;-54
2022/11/23 02:44:53;;;;;;;13.98;11.57;;;8.20;99.90;;;;;;5009897;28;20132;-55
2022/11/23 02:47:18;;;;;;;15.27;11.63;;;8.30;99.90;;;;;;4992086;28;20050;-56
2022/11/23 02:49:48;;;;;;;16.70;11.73;;;8.30;99.90;;;;;;4989248;28;20396;-52
2022/11/23 02:52:15;;;;;;;15.73;11.90;;;8.30;99.90;;;;;;4990807;28;20046;-56
2022/11/23 02:54:41;;;;;;;15.43;10.98;;;8.20;99.90;;;;;;4989724;28;20043;-58
2022/11/23 02:57:07;;;;;;;13.40;11.18;;;8.30;99.90;;;;;;5003579;28;20038;-54
2022/11/23 02:59:32;;;;;;;19.88;12.65;;;8.30;99.90;;;;;;5007992;28;20046;-53
2022/11/23 03:01:59;;;;;;;17.80;11.52;;;8.30;99.90;;;;;;5010360;28;20068;-56
2022/11/23 03:04:24;;;;;;;;;;;8.30;99.90;;;;;;5010146;28;20189;-55
2022/11/23 03:06:50;;;;;;;15.98;11.32;;;8.30;99.90;;;;;;5002699;28;19934;-56
2022/11/23 03:09:15;;;;;;;19.83;12.37;;;8.30;99.90;;;;;;4995195;28;20042;-56
2022/11/23 03:11:41;;;;;;;19.57;12.67;;;8.30;99.90;;;;;;5009194;28;20046;-55
2022/11/23 03:14:06;;;;;;;19.27;12.93;;;8.30;99.90;;;;;;5007427;28;20363;-56
2022/11/23 03:16:32;;;;;;;20.77;13.63;;;8.30;99.90;;;;;;4991749;28;20077;-57
2022/11/23 03:18:58;;;;;;;19.80;12.80;;;8.40;99.90;;;;;;4990795;28;20053;-56
2022/11/23 03:21:24;;;;;;;21.80;13.27;;;8.40;99.90;;;;;;4990494;28;20039;-58
2022/11/23 03:23:50;;;;;;;25.25;14.60;;;8.40;99.90;;;;;;4990121;28;20034;-58
2022/11/23 03:26:16;;;;;;;19.65;14.25;;;8.40;99.90;;;;;;4990369;28;20130;-52
2022/11/23 03:28:41;;;;;;;22.40;13.93;;;8.40;99.90;;;;;;4991270;28;20035;-55
2022/11/23 03:31:07;;;;;;;23.73;15.07;;;8.40;99.90;;;;;;4989386;28;20044;-51
2022/11/23 03:33:32;;;;;;;23.03;14.90;;;8.50;99.90;;;;;;4989061;28;20046;-58
2022/11/23 03:35:58;;;;;;;24.20;14.27;;;8.40;99.90;;;;;;4990398;28;20046;-53
2022/11/23 03:38:24;;;;;;;22.37;14.50;;;8.50;99.90;;;;;;4999336;28;20038;-54
2022/11/23 03:40:49;;;;;;;26.87;14.77;;;8.50;99.90;;;;;;5009869;28;20044;-54
2022/11/23 03:43:15;;;;;;;29.83;16.40;;;8.50;99.90;;;;;;5008485;28;20041;-57
2022/11/23 03:45:41;;;;;;;23.40;14.70;;;8.50;99.90;;;;;;5010335;28;20045;-52
2022/11/23 03:48:07;;;;;;;32.38;16.48;;;8.50;99.90;;;;;;5008396;28;21674;-52
2022/11/23 03:50:32;;;;;;;22.23;14.93;;;8.50;99.90;;;;;;5010367;28;20042;-54
2022/11/23 03:53:01;;;;;;;32.80;16.07;;;8.50;99.90;;;;;;5008495;28;20049;-52
2022/11/23 03:55:26;;;;;;;23.48;15.05;;;8.50;99.90;;;;;;5010073;28;20073;-52
2022/11/23 03:57:58;;;;;;;31.03;15.67;;;8.50;99.90;;;;;;5008639;28;20197;-54
2022/11/23 04:00:25;;;;;;;24.65;15.32;;;8.50;99.90;;;;;;5005752;28;20042;-55
2022/11/23 04:02:50;;;;;;;24.90;14.38;;;8.50;99.90;;;;;;5009415;28;20045;-54
2022/11/23 04:05:16;;;;;;;22.73;13.97;;;8.50;99.90;;;;;;5010274;28;20437;-52
2022/11/23 04:07:42;;;;;;;28.23;15.20;;;8.50;99.90;;;;;;5005802;28;20049;-56
2022/11/23 04:10:07;;;;;;;28.70;14.73;;;8.50;99.90;;;;;;4994639;28;20324;-54
2022/11/23 04:12:33;;;;;;;22.33;14.48;;;8.50;99.90;;;;;;4993172;28;20407;-52
2022/11/23 04:14:58;;;;;;;21.53;14.40;;;8.50;99.90;;;;;;4991824;28;20046;-54
2022/11/23 04:17:24;;;;;;;29.33;15.03;;;8.50;99.90;;;;;;4993636;28;20432;-54
2022/11/23 04:19:49;;;;;;;29.30;14.17;;;8.50;99.90;;;;;;4993304;28;20447;-55
2022/11/23 04:22:15;;;;;;;21.80;12.57;;;8.50;99.90;;;;;;5011719;28;20048;-54
2022/11/23 04:24:40;;;;;;;22.67;15.13;;;8.50;99.90;;;;;;5011974;28;20537;-57
2022/11/23 04:27:06;;;;;;;22.33;14.13;;;8.50;99.90;;;;;;5012312;28;20117;-57
2022/11/23 04:29:31;;;;;;;32.53;14.70;;;8.50;99.90;;;;;;5012753;28;20078;-53
2022/11/23 04:31:57;;;;;;;25.50;14.47;;;8.50;99.90;;;;;;5000052;28;20125;-55
2022/11/23 04:34:22;;;;;;;24.67;14.40;;;8.50;99.90;;;;;;4992596;28;20046;-55
2022/11/23 04:36:48;;;;;;;21.10;13.67;;;8.50;99.90;;;;;;4992878;28;20030;-53
2022/11/23 04:39:13;;;;;;;25.40;13.53;;;8.50;99.90;;;;;;4993200;28;20047;-56
2022/11/23 04:41:39;;;;;;;27.47;14.17;;;8.50;99.90;;;;;;4998802;28;20233;-56
2022/11/23 04:44:05;;;;;;;23.50;13.53;;;8.50;99.90;;;;;;5012230;28;20037;-58
2022/11/23 04:46:30;;;;;;;23.55;13.20;;;8.50;99.90;;;;;;5012262;28;20408;-56
2022/11/23 04:48:56;;;;;;;31.33;13.77;;;8.50;99.90;;;;;;5005220;28;20050;-55
2022/11/23 04:51:22;;;;;;;22.27;13.33;;;8.60;99.90;;;;;;4993242;28;20046;-56
2022/11/23 04:53:47;;;;;;;25.83;13.97;;;8.60;99.90;;;;;;5011934;28;20045;-57
2022/11/23 04:56:13;;;;;;;25.48;12.80;;;8.50;99.90;;;;;;5010719;28;20124;-57
2022/11/23 04:58:39;;;;;;;23.75;13.48;;;8.50;99.90;;;;;;5012551;28;20049;-55
2022/11/23 05:01:05;;;;;;;18.88;11.55;;;8.50;99.90;;;;;;5012235;28;20042;-56
2022/11/23 05:03:33;;;;;;;19.98;11.82;;;8.50;99.90;;;;;;5010249;28;20044;-57
2022/11/23 05:06:00;;;;;;;18.50;10.48;;;8.50;99.90;;;;;;5012093;28;20044;-56
2022/11/23 05:08:25;;;;;;;17.92;10.77;;;8.50;99.90;;;;;;5011656;28;20081;-58
2022/11/23 05:10:51;;;;;;;22.83;11.20;;;8.50;99.90;;;;;;5010981;28;20058;-57
2022/11/23 05:13:16;;;;;;;21.10;10.33;;;8.50;99.90;;;;;;5005370;28;20061;-55
2022/11/23 05:15:42;;;;;;;15.67;8.80;;;8.50;99.90;;;;;;4992104;28;20408;-57
2022/11/23 05:18:09;;;;;;;18.87;9.37;;;8.40;99.90;;;;;;4992026;28;20510;-60
2022/11/23 05:20:34;;;;;;;18.70;7.35;;;8.40;99.90;;;;;;4993169;28;20411;-56
2022/11/23 05:23:00;;;;;;;16.27;7.37;;;8.40;99.90;;;;;;4992006;28;20091;-59
2022/11/23 05:25:26;;;;;;;15.35;7.60;;;8.40;99.90;;;;;;5009927;28;20561;-55
2022/11/23 05:27:52;;;;;;;13.40;6.90;;;8.50;99.90;;;;;;5011740;28;20121;-55
2022/11/23 05:30:18;;;;;;;14.00;6.40;;;8.40;99.90;;;;;;5011947;28;20037;-56
2022/11/23 05:32:44;;;;;;;;;;;8.40;99.90;;;;;;5012101;28;20065;-59
2022/11/23 05:35:10;;;;;;;16.65;6.82;;;8.40;99.90;;;;;;5009639;28;20271;-56
2022/11/23 05:37:36;;;;;;;12.13;5.10;;;8.30;99.90;;;;;;5011741;28;20049;-58
2022/11/23 05:40:02;;;;;;;14.25;5.90;;;8.30;99.90;;;;;;5011211;28;20225;-55
2022/11/23 05:42:28;;;;;;;15.80;6.32;;;8.30;99.90;;;;;;5011761;28;20041;-53
2022/11/23 05:44:53;;;;;;;12.30;5.37;;;8.30;99.90;;;;;;5006068;28;20034;-53
2022/11/23 05:47:19;;;;;;;13.80;4.80;;;8.20;99.90;;;;;;4991946;28;20053;-56
2022/11/23 05:49:44;;;;;;;14.67;6.87;;;8.20;99.90;;;;;;4991637;28;20042;-52
2022/11/23 05:52:10;;;;;;;15.07;6.67;;;8.20;99.90;;;;;;4991637;28;20042;-53
2022/11/23 05:54:35;;;;;;;12.77;4.70;;;8.20;99.90;;;;;;5005852;28;20041;-55
2022/11/23 05:57:01;;;;;;;27.27;6.67;;;8.10;99.90;;;;;;4992695;28;20039;-55
2022/11/23 05:59:26;;;;;;;17.20;5.90;;;8.10;99.90;;;;;;4991511;28;20483;-52
2022/11/23 06:01:52;;;;;;;18.60;4.70;;;8.00;99.90;;;;;;4991593;28;20042;-54
2022/11/23 06:04:17;;;;;;;18.07;4.93;;;8.00;99.90;;;;;;4991082;28;20046;-55
2022/11/23 06:06:43;;;;;;;11.47;5.30;;;8.00;99.90;;;;;;5003280;28;20116;-55
2022/11/23 06:09:09;;;;;;;15.80;5.67;;;7.90;99.90;;;;;;5010655;28;20470;-52
2022/11/23 06:11:35;;;;;;;;;;;7.90;99.90;;;;;;5011218;28;20073;-55
2022/11/23 06:14:00;;;;;;;15.45;5.38;;;7.80;99.90;;;;;;4997521;28;20336;-56
2022/11/23 06:16:26;;;;;;;16.37;5.20;;;7.80;99.90;;;;;;4990980;28;20050;-54
2022/11/23 06:18:52;;;;;;;9.93;5.57;;;7.80;99.90;;;;;;4991272;28;20125;-52
2022/11/23 06:21:18;;;;;;;17.90;5.47;;;7.70;99.90;;;;;;4989886;28;20042;-54
2022/11/23 06:23:45;;;;;;;15.52;5.30;;;7.70;99.90;;;;;;4990857;28;20042;-52
2022/11/23 06:26:11;;;;;;;12.45;4.65;;;7.70;99.90;;;;;;4989728;28;20034;-52
2022/11/23 06:28:36;;;;;;;14.27;5.67;;;7.60;99.90;;;;;;5008140;28;20072;-52
2022/11/23 06:31:04;;;;;;;12.10;4.67;;;7.60;99.90;;;;;;5010383;28;20038;-57
2022/11/23 06:33:30;;;;;;;15.57;6.40;;;7.60;99.90;;;;;;5010193;28;20038;-55
2022/11/23 06:36:01;;;;;;;19.43;5.57;;;7.60;99.90;;;;;;5010454;28;20475;-55
2022/11/23 06:38:26;;;;;;;13.63;4.70;;;7.60;99.90;;;;;;5005108;28;20050;-51
2022/11/23 06:40:52;;;;;;;12.18;5.75;;;7.60;99.90;;;;;;5010012;28;20036;-55
2022/11/23 06:43:18;;;;;;;12.73;5.80;;;7.60;99.90;;;;;;5002767;28;20521;-52
2022/11/23 06:45:43;;;;;;;17.67;6.07;;;7.60;99.90;;;;;;4990908;28;20042;-55
2022/11/23 06:48:09;;;;;;;11.17;5.40;;;7.60;99.90;;;;;;4991665;28;20046;-52
2022/11/23 06:50:35;;;;;;;19.40;6.10;;;7.60;99.90;;;;;;4989527;28;20129;-53
2022/11/23 06:53:00;;;;;;;20.13;5.80;;;7.60;99.90;;;;;;4990421;28;20053;-58
2022/11/23 06:55:26;;;;;;;14.97;5.87;;;7.60;99.90;;;;;;4990878;28;20046;-57
2022/11/23 06:57:52;;;;;;;20.60;6.28;;;7.60;99.90;;;;;;5001354;28;20065;-56
2022/11/23 07:00:18;;;;;;;20.88;6.35;;;7.60;99.90;;;;;;4991175;28;20156;-55
2022/11/23 07:02:51;;;;;;;23.50;6.35;;;7.60;99.90;;;;;;4990649;28;20122;-54
2022/11/23 07:05:16;;;;;;;14.75;7.20;;;7.50;99.90;;;;;;5005107;28;20050;-55
2022/11/23 07:07:42;;;;;;;21.83;6.80;;;7.50;99.90;;;;;;5010369;28;20042;-56
2022/11/23 07:10:08;;;;;;;13.77;6.90;;;7.60;99.90;;;;;;5010453;28;20077;-53
2022/11/23 07:12:33;;;;;;;12.63;6.72;;;7.60;99.90;;;;;;5010194;28;20053;-51
2022/11/23 07:14:59;;;;;;;24.00;7.13;;;7.60;99.90;;;;;;5009675;28;20044;-58
2022/11/23 07:17:24;;;;;;;21.13;5.87;;;7.60;99.90;;;;;;5010282;28;20052;-55
2022/11/23 07:19:50;;;;;;;15.90;6.23;;;7.70;99.90;;;;;;5009890;28;20038;-56
2022/11/23 07:22:16;;;;;;;15.70;6.50;;;7.70;99.90;;;;;;5010558;28;20088;-57
2022/11/23 07:24:41;;;;;;;15.90;6.45;;;7.80;99.90;;;;;;5009891;28;20080;-57
2022/11/23 07:27:07;;;;;;;18.50;5.30;;;7.80;99.90;;;;;;5010209;28;20034;-54
2022/11/23 07:29:32;;;;;;;22.27;7.27;;;7.80;99.90;;;;;;5009992;28;20038;-56
2022/11/23 07:31:59;;;;;;;19.97;5.63;;;7.90;99.90;;;;;;5008817;28;20373;-56
2022/11/23 07:34:26;;;;;;;10.73;5.90;;;7.90;99.90;;;;;;5009103;28;20121;-54
2022/11/23 07:36:54;;;;;;;13.35;5.50;;;8.00;99.90;;;;;;5009877;28;20088;-57
2022/11/23 07:39:20;;;;;;;15.88;5.25;;;8.00;99.90;;;;;;5010819;28;20050;-57
2022/11/23 07:41:48;;;;;;;8.23;4.50;;;8.10;99.90;;;;;;5013699;28;20049;-56
2022/11/23 07:44:14;;;;;;;14.52;4.65;;;8.10;99.90;;;;;;5013324;28;20121;-59
2022/11/23 07:46:40;;;;;;;20.03;4.80;;;8.10;99.90;;;;;;5013500;28;20126;-56
2022/11/23 07:49:05;;;;;;;12.00;4.40;;;8.20;99.90;;;;;;5011825;28;20495;-55
2022/11/23 07:51:31;;;;;;;20.37;4.23;;;8.20;99.90;;;;;;5007360;28;20113;-59
2022/11/23 07:53:57;;;;;;;14.05;4.38;;;8.20;99.90;;;;;;5003318;28;20044;-55
2022/11/23 07:56:22;;;;;;;13.33;5.03;;;8.20;99.90;;;;;;5011917;28;20037;-57
2022/11/23 07:58:48;;;;;;;16.52;4.80;;;8.30;99.90;;;;;;5013358;28;20662;-52
2022/11/23 08:01:18;;;;;;;17.53;4.90;;;8.20;99.90;;;;;;5011843;28;20121;-52
2022/11/23 08:03:44;;;;;;;22.33;5.10;;;8.30;99.90;;;;;;5012222;28;20040;-54
2022/11/23 08:06:11;;;;;;;19.15;5.20;;;8.30;99.90;;;;;;5013189;28;20038;-55
2022/11/23 08:08:37;;;;;;;17.42;5.90;;;8.30;99.90;;;;;;5013159;28;20038;-54
2022/11/23 08:11:06;;;;;;;13.98;4.05;;;8.30;99.90;;;;;;5011675;28;20389;-57
2022/11/23 08:13:33;;;;;;;16.05;4.13;;;8.40;99.90;;;;;;5013169;28;20046;-56
2022/11/23 08:15:59;;;;;;;15.32;4.72;;;8.40;99.90;;;;;;5012569;28;20045;-55
2022/11/23 08:18:25;;;;;;;18.10;5.38;;;8.40;99.90;;;;;;5013115;28;20042;-55
2022/11/23 08:20:51;;;;;;;15.05;5.28;;;8.40;99.90;;;;;;5012868;28;20510;-53
2022/11/23 08:23:17;;;;;;;20.40;4.07;;;8.50;99.90;;;;;;5012607;28;20077;-56
2022/11/23 08:25:43;;;;;;;15.85;4.13;;;8.50;99.90;;;;;;5011140;28;20025;-54
2022/11/23 08:28:09;;;;;;;18.13;4.88;;;8.50;99.90;;;;;;5011164;28;20038;-53
2022/11/23 08:30:35;;;;;;;18.75;4.18;;;8.50;99.90;;;;;;5002065;28;20049;-54
2022/11/23 08:33:05;;;;;;;16.25;4.68;;;8.60;99.90;;;;;;5008486;28;20041;-55
2022/11/23 08:35:39;;;;;;;19.50;4.70;;;8.60;99.90;;;;;;5012595;28;20048;-53
2022/11/23 08:38:05;;;;;;;12.45;3.90;;;8.60;99.90;;;;;;5012477;28;20042;-54
2022/11/23 08:40:32;;;;;;;17.92;3.97;;;8.60;99.90;;;;;;5012696;28;20038;-52
2022/11/23 08:42:57;;;;;;;14.10;3.92;;;8.60;99.90;;;;;;5012198;28;20046;-56
2022/11/23 08:45:23;;;;;;;16.17;4.27;;;8.70;99.90;;;;;;5012076;28;20041;-51
2022/11/23 08:47:49;;;;;;;24.92;4.10;;;8.70;99.90;;;;;;5007516;28;20635;-51
2022/11/23 08:50:16;;;;;;;14.68;3.75;;;8.70;99.90;;;;;;5001305;28;20442;-51
2022/11/23 08:52:41;;;;;;;;;;;8.70;99.90;;;;;;4994554;28;20092;-52
2022/11/23 08:55:08;;;;;;;18.48;4.05;;;8.80;99.90;;;;;;5000939;28;19922;-50
2022/11/23 08:57:33;;;;;;;;;;;8.80;99.90;;;;;;5010786;28;20531;-51
2022/11/23 08:59:59;;;;;;;14.43;3.92;;;8.80;99.90;;;;;;5011963;28;20036;-53
2022/11/23 09:02:25;;;;;;;12.30;3.23;;;8.80;99.90;;;;;;5012293;28;20045;-57
2022/11/23 09:04:50;;;;;;;23.30;3.95;;;8.80;99.90;;;;;;5011787;28;20084;-56
2022/11/23 09:07:16;;;;;;;24.37;4.43;;;8.80;99.90;;;;;;5011856;28;20546;-53
2022/11/23 09:09:41;;;;;;;18.30;3.27;;;8.80;99.90;;;;;;5012009;28;20045;-54
2022/11/23 09:12:07;;;;;;;20.33;4.33;;;8.70;99.90;;;;;;5010520;28;20054;-56
2022/11/23 09:14:33;;;;;;;19.50;4.72;;;8.70;99.90;;;;;;5011588;28;20097;-57
2022/11/23 09:17:00;;;;;;;13.63;3.95;;;8.80;99.90;;;;;;5011044;28;20077;-55
2022/11/23 09:19:26;;;;;;;20.35;3.83;;;8.80;99.90;;;;;;4996530;28;20042;-55
2022/11/23 09:21:51;;;;;;;18.80;4.37;;;8.70;99.90;;;;;;5006126;28;20034;-56
2022/11/23 09:24:17;;;;;;;18.30;4.00;;;8.80;99.90;;;;;;5006436;28;20034;-54
2022/11/23 09:26:42;;;;;;;20.57;3.63;;;8.80;99.90;;;;;;5011638;28;20129;-54
2022/11/23 09:29:08;;;;;;;22.27;3.13;;;8.80;99.90;;;;;;5000173;28;20139;-57
2022/11/23 09:31:34;;;;;;;17.17;3.53;;;8.80;99.90;;;;;;5007596;28;20038;-56
2022/11/23 09:34:00;;;;;;;;;;;8.80;99.90;;;;;;5011705;28;20276;-56
2022/11/23 09:36:25;;;;;;;19.92;3.60;;;8.80;99.90;;;;;;4993849;28;19925;-55
2022/11/23 09:38:51;;;;;;;12.90;3.73;;;8.80;99.90;;;;;;5003495;28;20541;-54
2022/11/23 09:41:52;;;;;;;15.50;4.32;;;8.80;99.90;;;;;;5011416;28;20046;-57
2022/11/23 09:44:48;;;;;;;24.88;4.57;;;8.80;99.90;;;;;;4998029;28;20046;-56
2022/11/23 09:47:32;;;;;;;15.30;3.13;;;8.80;99.90;;;;;;4994618;28;20044;-60
2022/11/23 09:50:06;;;;;;;14.55;4.30;;;8.80;99.90;;;;;;4998709;28;20475;-55
2022/11/23 09:52:34;;;;;;;16.38;3.33;;;8.80;99.90;;;;;;5002591;28;20042;-56
2022/11/23 09:55:15;;;;;;;17.10;2.78;;;8.80;99.90;;;;;;5000938;28;20080;-57
2022/11/23 09:57:42;;;;;;;11.52;3.30;;;8.80;99.90;;;;;;5002987;28;20038;-59
2022/11/23 10:00:19;;;;;;;13.20;3.05;;;8.80;99.90;;;;;;5003019;28;20045;-58
2022/11/23 10:02:46;;;;;;;26.75;4.18;;;8.90;99.90;;;;;;5001407;28;20170;-57
2022/11/23 10:05:21;;;;;;;19.15;2.97;;;9.00;99.90;;;;;;5000943;28;20165;-56
2022/11/23 10:08:18;;;;;;;12.57;2.50;;;9.00;99.90;;;;;;5000671;28;20408;-58
2022/11/23 10:10:57;;;;;;;19.58;3.17;;;9.10;99.90;;;;;;5000558;28;20408;-54
2022/11/23 10:14:09;;;;;;;15.88;2.67;;;9.10;99.90;;;;;;5002636;28;20049;-56
2022/11/23 10:16:54;;;;;;;13.27;3.15;;;9.20;99.90;;;;;;4994344;28;20491;-59
2022/11/23 10:19:44;;;;;;;20.80;2.97;;;9.30;99.90;;;;;;5010987;28;20100;-57
2022/11/23 10:22:25;;;;;;;15.52;1.70;;;9.30;99.90;;;;;;5011156;28;20045;-52
2022/11/23 10:24:52;;;;;;;19.02;3.47;;;9.30;99.90;;;;;;5010560;28;20038;-52
2022/11/23 10:27:21;;;;;;;14.70;2.17;;;9.30;99.90;;;;;;5010133;28;20046;-57
2022/11/23 10:29:48;;;;;;;17.52;2.95;;;9.30;99.90;;;;;;5010310;28;20064;-53
2022/11/23 10:32:54;;;;;;;12.40;2.60;;;9.40;99.90;;;;;;4994738;28;20075;-58
2022/11/23 10:35:27;;;;;;;16.35;3.00;;;9.50;99.90;;;;;;4983638;28;20054;-59
2022/11/23 10:38:10;;;;;;;32.05;3.03;;;9.60;99.90;;;;;;4990448;28;20038;-53
2022/11/23 10:40:39;;;;;;;13.43;2.30;;;9.60;99.90;;;;;;4991035;28;20088;-57
2022/11/23 10:43:28;;;;;;;17.73;2.08;;;9.60;99.90;;;;;;5001553;28;20406;-52
2022/11/23 10:46:22;;;;;;;13.50;2.20;;;9.70;99.90;;;;;;4996870;28;20050;-54
2022/11/23 10:48:50;;;;;;;19.70;3.00;;;9.80;99.90;;;;;;4998342;28;20042;-56
2022/11/23 10:51:28;;;;;;;10.63;1.98;;;9.90;99.90;;;;;;5010515;28;20069;-59
2022/11/23 10:54:03;;;;;;;14.63;2.42;;;10.10;99.90;;;;;;5008603;28;20045;-55
2022/11/23 10:56:30;;;;;;;12.32;2.20;;;10.50;99.90;;;;;;5009960;28;20049;-56
2022/11/23 10:58:56;;;;;;;11.90;1.85;;;11.00;99.90;;;;;;5010277;28;20077;-56
2022/11/23 11:01:24;;;;;;;;;;;11.40;99.90;;;;;;5004165;28;20052;-55
2022/11/23 11:03:51;;;;;;;22.33;2.40;;;11.80;99.90;;;;;;4990016;28;19918;-55
2022/11/23 11:06:28;;;;;;;12.45;1.88;;;12.00;99.90;;;;;;4999783;28;20042;-54
2022/11/23 11:09:00;;;;;;;20.92;2.90;;;12.20;99.90;;;;;;5009925;28;20060;-58
2022/11/23 11:11:31;;;;;;;8.80;2.03;;;12.50;99.90;;;;;;5008652;28;20038;-55
2022/11/23 11:14:01;;;;;;;10.32;1.70;;;12.80;99.90;;;;;;5009983;28;20049;-55
2022/11/23 11:16:34;;;;;;;24.15;5.28;;;13.00;99.90;;;;;;5003857;28;20169;-58
2022/11/23 11:19:20;;;;;;;9.60;2.47;;;13.40;99.90;;;;;;4994225;28;20050;-53
2022/11/23 11:21:45;;;;;;;12.82;1.35;;;13.50;99.90;;;;;;4995146;28;20043;-52
2022/11/23 11:24:18;;;;;;;10.13;2.27;;;13.70;99.90;;;;;;4993784;28;20624;-59
2022/11/23 11:26:51;;;;;;;17.15;1.85;;;13.80;99.90;;;;;;5004363;28;20399;-54
2022/11/23 11:29:30;;;;;;;11.45;1.92;;;13.90;99.90;;;;;;5013779;28;20049;-56
2022/11/23 11:32:10;;;;;;;8.77;1.38;;;14.40;99.90;;;;;;5011428;28;20038;-55
2022/11/23 11:34:35;;;;;;;9.32;2.08;;;14.40;99.90;;;;;;5013540;28;20076;-55
2022/11/23 11:37:23;;;;;;;13.23;1.87;;;14.60;99.90;;;;;;5003185;28;20038;-56
2022/11/23 11:39:54;;;;;;;11.63;1.70;;;14.60;99.90;;;;;;4993825;28;20051;-56
2022/11/23 11:42:31;;;;;;;12.05;1.15;;;14.60;99.90;;;;;;4994768;28;20145;-56
2022/11/23 11:45:00;;;;;;;14.13;2.35;;;14.80;99.90;;;;;;5012363;28;20042;-56
2022/11/23 11:47:35;;;;;;;14.65;1.65;;;15.00;99.90;;;;;;5013669;28;20034;-59
2022/11/23 11:50:18;;;;;;;55.38;11.48;;;15.00;99.10;;;;;;4994875;28;20048;-53
2022/11/23 11:52:45;;;;;;;10.70;1.65;;;15.10;98.50;;;;;;4994257;28;20670;-57
2022/11/23 11:55:20;;;;;;;9.88;2.10;;;15.30;97.40;;;;;;5012002;28;20042;-58
2022/11/23 11:57:50;;;;;;;8.88;1.70;;;15.40;95.40;;;;;;5013380;28;20113;-55
2022/11/23 12:00:19;;;;;;;11.18;1.63;;;15.50;96.40;;;;;;4994812;28;20039;-58
2022/11/23 12:03:16;;;;;;;12.82;1.65;;;15.90;95.40;;;;;;4994159;28;20514;-58
2022/11/23 12:05:48;;;;;;;6.43;1.60;;;16.20;95.00;;;;;;4993694;28;20034;-57
2022/11/23 12:08:49;;;;;;;12.45;1.80;;;16.20;92.00;;;;;;4992563;28;20081;-59
2022/11/23 12:11:15;;;;;;;10.95;2.00;;;16.20;91.40;;;;;;5000114;28;20061;-53
2022/11/23 12:13:43;;;;;;;7.47;1.77;;;16.60;93.10;;;;;;4993722;28;20034;-51
2022/11/23 12:16:35;;;;;;;11.63;1.90;;;16.60;90.80;;;;;;5000126;28;20077;-55
2022/11/23 12:19:08;;;;;;;7.63;1.60;;;17.30;90.90;;;;;;5012907;28;20041;-56
2022/11/23 12:21:51;;;;;;;10.95;1.63;;;17.60;87.50;;;;;;5003136;28;20035;-56
2022/11/23 12:24:49;;;;;;;9.98;1.98;;;17.70;84.40;;;;;;5002286;28;20061;-59
2022/11/23 12:27:25;;;;;;;9.52;1.10;;;17.60;82.20;;;;;;5011508;28;20044;-55
2022/11/23 12:29:59;;;;;;;7.17;1.37;;;17.30;81.60;;;;;;5010220;28;20113;-58
2022/11/23 12:32:43;;;;;;;9.55;1.55;;;17.20;80.50;;;;;;5002683;28;20844;-56
2022/11/23 12:35:30;;;;;;;6.15;1.02;;;17.20;81.70;;;;;;5012476;28;20053;-58
2022/11/23 12:38:33;;;;;;;11.30;1.63;;;17.30;80.20;;;;;;4995461;28;20443;-57
2022/11/23 12:41:20;;;;;;;9.73;1.27;;;17.10;78.20;;;;;;4993059;28;20053;-58
2022/11/23 12:44:07;;;;;;;3.85;0.88;;;17.50;80.50;;;;;;5009411;28;20073;-63
2022/11/23 12:47:08;;;;;;;7.70;1.30;;;18.20;81.90;;;;;;5010091;28;20434;-56
2022/11/23 12:49:40;;;;;;;3.53;0.57;;;18.50;77.80;;;;;;4992922;28;20046;-54
2022/11/23 12:52:20;;;;;;;4.80;1.20;;;18.30;76.30;;;;;;4997746;28;20099;-54
2022/11/23 12:54:46;;;;;;;7.88;0.93;;;17.90;74.90;;;;;;4992182;28;20473;-53